Time;durP1;ratioP1;P1;durP2;ratioP2;P2;SDS_P1;SDS_P2;PMS_P1;PMS_P2;Temp;Humidity;BMP_temperature;BMP_pressure;BME280_temperature;BME280_humidity;BME280_pressure;Samples;Min_cycle;Max_cycle;Signal;HPM_P1;HPM_P2
2023/06/15 00:01:06;;;;;;;6.32;4.32;;;;;;;24.89;56.46;99606.09;4935002;29;20364;-74
2023/06/15 00:03:32;;;;;;;7.53;4.82;;;;;;;24.89;56.37;99607.94;4934788;29;20063;-74
2023/06/15 00:05:57;;;;;;;6.03;4.38;;;;;;;24.86;56.63;99602.81;4934951;29;20496;-74
2023/06/15 00:08:23;;;;;;;6.30;4.18;;;;;;;24.84;56.20;99597.59;4934939;29;20030;-74
2023/06/15 00:10:48;;;;;;;6.50;4.57;;;;;;;24.86;56.46;99598.34;4934561;29;20036;-74
2023/06/15 00:13:15;;;;;;;5.80;4.05;;;;;;;24.86;56.24;99600.16;4933643;29;20027;-76
2023/06/15 00:15:41;;;;;;;5.65;4.10;;;;;;;24.84;56.20;99592.25;4933613;29;20439;-75
2023/06/15 00:18:06;;;;;;;6.68;4.38;;;;;;;24.85;56.31;99604.66;4934931;29;20096;-74
2023/06/15 00:20:32;;;;;;;7.00;4.70;;;;;;;24.84;56.39;99597.59;4934910;29;20080;-75
2023/06/15 00:22:59;;;;;;;6.57;4.15;;;;;;;24.83;56.25;99601.22;4934847;29;20031;-76
2023/06/15 00:25:24;;;;;;;7.85;4.10;;;;;;;24.84;56.53;99602.91;4934509;29;20039;-74
2023/06/15 00:27:50;;;;;;;5.85;4.22;;;;;;;24.81;56.31;99608.50;4934981;29;20031;-76
2023/06/15 00:30:16;;;;;;;7.60;4.32;;;;;;;24.82;56.45;99610.19;4936603;29;20122;-74
2023/06/15 00:32:42;;;;;;;5.70;4.22;;;;;;;24.79;56.13;99603.25;4938693;29;20408;-74
2023/06/15 00:35:08;;;;;;;7.75;4.30;;;;;;;24.78;56.41;99608.69;4937077;29;20055;-74
2023/06/15 00:37:34;;;;;;;5.40;4.30;;;;;;;24.77;56.56;99609.66;4938220;29;20069;-75
2023/06/15 00:40:00;;;;;;;6.25;4.38;;;;;;;24.77;56.61;99617.66;4937513;29;20563;-74
2023/06/15 00:42:28;;;;;;;6.32;4.80;;;;;;;24.77;56.32;99618.53;4938023;29;20031;-74
2023/06/15 00:44:54;;;;;;;7.25;4.35;;;;;;;24.78;56.44;99614.03;4937721;29;20028;-75
2023/06/15 00:47:21;;;;;;;6.78;4.75;;;;;;;24.75;56.52;99619.59;4938067;29;20070;-75
2023/06/15 00:49:46;;;;;;;7.88;4.40;;;;;;;24.75;56.57;99612.44;4937833;29;20043;-76
2023/06/15 00:52:15;;;;;;;7.60;4.75;;;;;;;24.74;56.37;99613.41;4937790;29;20027;-75
2023/06/15 00:54:43;;;;;;;5.70;4.50;;;;;;;24.76;56.45;99621.31;4937555;29;20361;-75
2023/06/15 00:57:10;;;;;;;5.90;3.83;;;;;;;24.73;56.46;99626.84;4938043;29;20443;-74
2023/06/15 00:59:37;;;;;;;6.55;4.10;;;;;;;24.75;56.40;99614.28;4937828;29;20419;-76
2023/06/15 01:02:03;;;;;;;7.18;4.18;;;;;;;24.73;56.29;99619.72;4936391;29;20496;-76
2023/06/15 01:04:29;;;;;;;7.22;4.72;;;;;;;24.70;56.35;99617.28;4938010;29;20387;-75
2023/06/15 01:06:57;;;;;;;5.55;4.35;;;;;;;24.70;56.35;99613.75;4937484;29;20031;-76
2023/06/15 01:09:23;;;;;;;7.35;3.88;;;;;;;24.68;56.57;99613.88;4937398;29;20469;-75
2023/06/15 01:11:52;;;;;;;6.35;4.60;;;;;;;24.67;56.39;99620.19;4937675;29;20053;-75
2023/06/15 01:14:20;;;;;;;6.60;4.18;;;;;;;24.71;56.51;99623.47;4937558;29;20062;-75
2023/06/15 01:16:52;;;;;;;6.90;4.35;;;;;;;24.70;56.27;99611.97;4937511;29;20035;-75
2023/06/15 01:19:57;;;;;;;5.82;4.00;;;;;;;24.66;56.44;99621.97;4937483;29;20152;-75
2023/06/15 01:22:55;;;;;;;6.22;4.00;;;;;;;24.70;56.55;99617.28;4936856;29;20043;-75
2023/06/15 01:25:29;;;;;;;6.22;4.35;;;;;;;24.66;56.36;99616.63;4936952;29;20027;-75
2023/06/15 01:27:59;;;;;;;5.68;4.18;;;;;;;24.66;56.46;99629.16;4937327;29;20423;-75
2023/06/15 01:30:27;;;;;;;6.85;4.65;;;;;;;24.66;56.33;99627.31;4951632;29;20043;-75
2023/06/15 01:32:53;;;;;;;6.55;4.28;;;;;;;24.66;56.36;99637.16;4937499;29;20495;-75
2023/06/15 01:35:19;;;;;;;5.80;4.10;;;;;;;24.67;56.75;99633.50;4937055;29;20027;-75
2023/06/15 01:37:44;;;;;;;5.60;4.00;;;;;;;24.64;56.48;99637.25;4936754;29;20083;-75
2023/06/15 01:40:11;;;;;;;6.53;4.05;;;;;;;24.64;56.60;99637.25;4936406;29;20023;-76
2023/06/15 01:42:37;;;;;;;6.60;4.30;;;;;;;24.65;56.45;99640.78;4935805;29;20389;-74
2023/06/15 01:45:03;;;;;;;5.80;3.95;;;;;;;24.63;56.22;99638.22;4936974;29;20031;-75
2023/06/15 01:47:29;;;;;;;6.05;4.32;;;;;;;24.62;56.54;99646.34;4936915;29;20035;-74
2023/06/15 01:49:55;;;;;;;5.63;4.07;;;;;;;24.61;56.46;99644.63;4936830;29;20377;-75
2023/06/15 01:52:21;;;;;;;6.32;4.30;;;;;;;24.62;56.53;99647.19;4936543;29;20031;-75
2023/06/15 01:54:47;;;;;;;7.90;4.43;;;;;;;24.62;56.28;99649.88;4936521;29;20024;-74
2023/06/15 01:57:12;;;;;;;6.57;4.25;;;;;;;24.61;56.49;99650.84;4936884;29;20500;-74
2023/06/15 01:59:38;;;;;;;7.72;4.95;;;;;;;24.58;56.43;99651.06;4935262;29;20035;-73
2023/06/15 02:02:03;;;;;;;5.10;3.83;;;;;;;24.58;56.50;99651.06;4936441;29;20159;-74
2023/06/15 02:04:29;;;;;;;6.78;4.25;;;;;;;24.59;56.32;99647.41;4936765;29;20098;-74
2023/06/15 02:06:57;;;;;;;7.32;4.35;;;;;;;24.60;56.50;99643.78;4936201;29;20103;-74
2023/06/15 02:09:22;;;;;;;6.70;4.05;;;;;;;24.58;56.63;99640.38;4936379;29;20047;-74
2023/06/15 02:11:47;;;;;;;5.50;3.72;;;;;;;24.57;56.59;99644.03;4936528;29;20032;-75
2023/06/15 02:14:13;;;;;;;5.85;3.78;;;;;;;24.58;56.72;99648.38;4935095;29;20131;-75
2023/06/15 02:16:38;;;;;;;5.30;4.13;;;;;;;24.57;56.72;99649.34;4936412;29;20036;-73
2023/06/15 02:19:04;;;;;;;7.05;4.30;;;;;;;24.58;56.57;99645.72;4934960;29;20028;-74
2023/06/15 02:21:30;;;;;;;5.85;4.28;;;;;;;24.58;56.57;99643.06;4935875;29;20027;-75
2023/06/15 02:23:55;;;;;;;6.75;4.50;;;;;;;24.58;56.51;99648.38;4936133;29;20123;-75
2023/06/15 02:26:21;;;;;;;5.93;4.07;;;;;;;24.57;56.56;99646.69;4935904;29;20110;-74
2023/06/15 02:28:47;;;;;;;6.40;3.65;;;;;;;24.56;56.50;99644.13;4935766;29;20050;-74
2023/06/15 02:31:12;;;;;;;6.47;4.10;;;;;;;24.54;56.47;99645.09;4936102;29;20067;-75
2023/06/15 02:33:38;;;;;;;5.05;4.03;;;;;;;24.53;56.61;99651.41;4936183;29;20032;-76
2023/06/15 02:36:04;;;;;;;5.35;4.03;;;;;;;24.54;56.39;99652.22;4935582;29;20038;-76
2023/06/15 02:38:30;;;;;;;7.10;4.30;;;;;;;24.55;56.67;99651.25;4934505;29;20126;-74
2023/06/15 02:40:55;;;;;;;8.15;4.50;;;;;;;24.53;56.61;99647.88;4935867;29;20110;-74
2023/06/15 02:43:20;;;;;;;6.75;4.18;;;;;;;24.54;56.51;99649.56;4935856;29;20047;-74
2023/06/15 02:45:46;;;;;;;6.22;4.18;;;;;;;24.54;56.65;99654.91;4935880;29;20106;-75
2023/06/15 02:48:11;;;;;;;5.88;3.88;;;;;;;24.52;56.60;99657.69;4935543;29;20036;-74
2023/06/15 02:50:36;;;;;;;6.82;4.43;;;;;;;24.52;56.53;99655.03;4935459;29;20055;-73
2023/06/15 02:53:02;;;;;;;5.30;3.90;;;;;;;24.51;56.34;99657.81;4933914;29;20039;-74
2023/06/15 02:55:27;;;;;;;5.65;4.13;;;;;;;24.53;56.63;99663.88;4934440;29;20392;-73
2023/06/15 02:57:53;;;;;;;4.70;3.72;;;;;;;24.52;56.50;99659.50;4934451;29;20032;-74
2023/06/15 03:00:19;;;;;;;6.07;4.00;;;;;;;24.52;56.50;99663.03;4935482;29;20099;-75
2023/06/15 03:02:44;;;;;;;6.30;4.25;;;;;;;24.54;56.42;99665.56;4935242;29;20032;-75
2023/06/15 03:05:11;;;;;;;5.97;3.92;;;;;;;24.49;56.43;99663.25;4935444;29;20028;-75
2023/06/15 03:07:36;;;;;;;5.85;4.25;;;;;;;24.52;56.49;99664.84;4935273;29;20034;-73
2023/06/15 03:10:02;;;;;;;5.30;3.80;;;;;;;24.52;56.45;99665.72;4935444;29;20027;-75
2023/06/15 03:12:27;;;;;;;5.18;3.72;;;;;;;24.50;56.43;99664.13;4935330;29;20373;-74
2023/06/15 03:14:53;;;;;;;6.15;3.90;;;;;;;24.51;56.34;99671.97;4935292;29;20024;-74
2023/06/15 03:17:21;;;;;;;4.97;3.45;;;;;;;24.50;56.29;99669.44;4935446;29;20023;-73
2023/06/15 03:19:47;;;;;;;5.00;3.53;;;;;;;24.50;56.55;99669.44;4934891;29;20118;-74
2023/06/15 03:22:14;;;;;;;5.15;4.25;;;;;;;24.49;56.57;99671.25;4935319;29;20053;-75
2023/06/15 03:24:41;;;;;;;6.88;3.95;;;;;;;24.49;56.56;99673.06;4935312;29;20031;-74
2023/06/15 03:27:07;;;;;;;5.05;3.13;;;;;;;24.50;56.16;99674.78;4935092;29;20028;-74
2023/06/15 03:29:36;;;;;;;5.05;3.88;;;;;;;24.48;56.58;99671.34;4935026;29;20073;-74
2023/06/15 03:32:07;;;;;;;5.75;3.45;;;;;;;24.49;56.25;99675.72;4935371;29;20044;-75
2023/06/15 03:34:32;;;;;;;5.78;3.88;;;;;;;24.48;56.28;99682.03;4934298;29;20035;-75
2023/06/15 03:36:58;;;;;;;6.43;3.70;;;;;;;24.45;56.58;99687.59;4935111;29;20115;-73
2023/06/15 03:39:23;;;;;;;5.75;3.90;;;;;;;24.47;56.52;99701.66;4934861;29;20027;-75
2023/06/15 03:41:49;;;;;;;6.22;3.60;;;;;;;24.46;56.55;99694.63;4935142;29;20066;-75
2023/06/15 03:44:14;;;;;;;4.85;3.35;;;;;;;24.48;56.14;99687.34;4934768;29;20110;-74
2023/06/15 03:46:41;;;;;;;6.45;3.88;;;;;;;24.47;56.56;99696.31;4935108;29;20019;-74
2023/06/15 03:49:07;;;;;;;6.28;3.85;;;;;;;24.45;56.49;99688.44;4934613;29;20024;-73
2023/06/15 03:51:32;;;;;;;4.25;3.10;;;;;;;24.43;56.63;99694.84;4934754;29;20031;-74
2023/06/15 03:53:59;;;;;;;5.55;3.78;;;;;;;24.45;56.30;99684.94;4934933;29;20565;-74
2023/06/15 03:56:25;;;;;;;5.03;3.72;;;;;;;24.45;56.20;99687.59;4934719;29;20024;-75
2023/06/15 03:58:50;;;;;;;4.40;3.42;;;;;;;24.44;56.56;99696.56;4934791;29;20475;-72
2023/06/15 04:01:16;;;;;;;6.60;3.90;;;;;;;24.43;56.40;99684.16;4935040;29;20028;-75
2023/06/15 04:03:41;;;;;;;4.78;3.67;;;;;;;24.44;56.52;99680.56;4934669;29;20043;-75
2023/06/15 04:06:07;;;;;;;5.45;3.58;;;;;;;24.44;56.14;99691.22;4938581;29;20031;-75
2023/06/15 04:08:33;;;;;;;6.50;3.83;;;;;;;24.42;56.51;99693.13;4938899;29;20028;-74
2023/06/15 04:10:59;;;;;;;5.57;3.58;;;;;;;24.43;56.40;99697.50;4938604;29;20082;-73
2023/06/15 04:13:25;;;;;;;6.72;4.00;;;;;;;24.40;56.18;99707.44;4938545;29;20099;-76
2023/06/15 04:15:50;;;;;;;7.07;3.72;;;;;;;24.42;56.36;99709.13;4938653;29;20164;-75
2023/06/15 04:18:16;;;;;;;4.95;3.67;;;;;;;24.43;56.06;99710.84;4938044;29;20046;-74
2023/06/15 04:20:42;;;;;;;4.70;3.03;;;;;;;24.40;56.50;99712.78;4938565;29;20496;-74
2023/06/15 04:23:07;;;;;;;6.22;3.60;;;;;;;24.40;56.44;99718.09;4938469;29;20106;-76
2023/06/15 04:25:35;;;;;;;5.15;3.40;;;;;;;24.38;56.23;99714.72;4940324;29;20027;-73
2023/06/15 04:28:02;;;;;;;5.20;3.78;;;;;;;24.36;56.19;99711.28;4938078;29;20493;-75
2023/06/15 04:30:29;;;;;;;5.72;3.90;;;;;;;24.36;56.51;99708.63;4935825;29;20102;-76
2023/06/15 04:32:59;;;;;;;5.82;3.90;;;;;;;24.38;56.56;99719.19;4936880;29;20566;-74
2023/06/15 04:35:29;;;;;;;5.15;3.65;;;;;;;24.34;56.34;99717.69;4937048;29;20035;-75
2023/06/15 04:37:58;;;;;;;6.10;3.95;;;;;;;24.34;56.35;99720.34;4934846;29;20024;-75
2023/06/15 04:40:24;;;;;;;5.80;3.50;;;;;;;24.33;56.50;99722.19;4936772;29;20216;-74
2023/06/15 04:42:50;;;;;;;4.68;3.50;;;;;;;24.33;56.37;99722.19;4936789;29;20099;-76
2023/06/15 04:45:15;;;;;;;6.18;3.60;;;;;;;24.35;56.27;99720.25;4920046;29;20024;-77
2023/06/15 04:47:42;;;;;;;4.80;3.45;;;;;;;24.35;56.48;99722.06;4936585;29;20087;-76
2023/06/15 04:50:08;;;;;;;6.32;3.50;;;;;;;24.33;56.44;99724.84;4937831;29;20019;-77
2023/06/15 04:52:34;;;;;;;4.78;3.40;;;;;;;24.32;56.58;99725.81;4937054;29;20403;-74
2023/06/15 04:54:59;;;;;;;5.10;3.65;;;;;;;24.35;56.35;99736.25;4936896;29;20035;-75
2023/06/15 04:57:25;;;;;;;4.43;3.08;;;;;;;24.33;56.30;99732.84;4936809;29;20076;-75
2023/06/15 04:59:50;;;;;;;4.95;3.30;;;;;;;24.32;56.61;99725.81;4936755;29;20020;-74
2023/06/15 05:02:16;;;;;;;6.53;3.67;;;;;;;24.33;56.22;99732.84;4943996;29;20506;-74
2023/06/15 05:04:41;;;;;;;4.80;3.13;;;;;;;24.33;56.31;99726.66;4948278;29;20026;-72
2023/06/15 05:07:06;;;;;;;5.22;3.25;;;;;;;24.30;56.37;99726.88;4936381;29;20031;-72
2023/06/15 05:09:32;;;;;;;6.20;3.15;;;;;;;24.31;56.25;99734.75;4936593;29;20028;-72
2023/06/15 05:11:57;;;;;;;5.47;3.40;;;;;;;24.32;56.38;99730.28;4936433;29;20035;-73
2023/06/15 05:14:23;;;;;;;5.28;3.67;;;;;;;24.30;56.36;99740.22;4936411;29;20016;-72
2023/06/15 05:16:48;;;;;;;5.35;3.28;;;;;;;24.30;56.48;99737.56;4935704;29;20027;-72
2023/06/15 05:19:14;;;;;;;5.30;3.22;;;;;;;24.30;56.20;99738.38;4936159;29;20032;-72
2023/06/15 05:21:39;;;;;;;4.22;2.83;;;;;;;24.29;56.14;99738.50;4936303;29;20028;-72
2023/06/15 05:24:06;;;;;;;6.18;3.05;;;;;;;24.26;56.09;99736.91;4935284;29;20027;-74
2023/06/15 05:26:31;;;;;;;5.28;3.25;;;;;;;24.27;56.25;99739.44;4936171;29;20036;-72
2023/06/15 05:28:57;;;;;;;5.70;3.25;;;;;;;24.29;56.28;99741.16;4895016;29;1170022;-72
2023/06/15 05:31:22;;;;;;;4.45;3.17;;;;;;;24.29;56.20;99743.81;4936715;29;20039;-72
2023/06/15 05:33:47;;;;;;;5.45;3.17;;;;;;;24.28;56.27;99745.66;4937180;29;20436;-72
2023/06/15 05:36:13;;;;;;;4.95;3.10;;;;;;;24.28;55.92;99745.66;4937156;29;20031;-73
2023/06/15 05:38:38;;;;;;;6.05;3.70;;;;;;;24.26;56.35;99752.91;4937033;29;20043;-72
2023/06/15 05:41:03;;;;;;;4.97;3.20;;;;;;;24.26;56.49;99736.91;4936973;29;20024;-72
2023/06/15 05:43:29;;;;;;;4.60;3.30;;;;;;;24.25;56.43;99745.84;4937159;29;20391;-72
2023/06/15 05:45:54;;;;;;;5.55;3.22;;;;;;;24.27;56.44;99747.44;4936684;29;20024;-72
2023/06/15 05:48:20;;;;;;;5.88;3.55;;;;;;;24.25;56.49;99746.72;4936825;29;20035;-72
2023/06/15 05:50:46;;;;;;;4.90;3.03;;;;;;;24.22;56.27;99741.59;4935526;29;20493;-72
2023/06/15 05:53:11;;;;;;;7.07;3.20;;;;;;;24.24;56.28;99746.81;4936885;29;20032;-72
2023/06/15 05:55:37;;;;;;;6.40;3.33;;;;;;;24.25;56.29;99751.19;4936529;29;20500;-71
2023/06/15 05:58:03;;;;;;;4.90;2.92;;;;;;;24.21;56.14;99747.06;4936678;29;20031;-72
2023/06/15 06:00:30;;;;;;;4.90;3.13;;;;;;;24.24;56.42;99755.69;4936129;29;20459;-71
2023/06/15 06:02:56;;;;;;;6.15;3.40;;;;;;;24.24;56.28;99749.50;4936000;29;20027;-72
2023/06/15 06:05:23;;;;;;;4.90;3.55;;;;;;;24.24;56.37;99749.50;4936486;29;20480;-72
2023/06/15 06:07:49;;;;;;;4.75;3.17;;;;;;;24.26;56.03;99747.59;4936387;29;20527;-72
2023/06/15 06:10:17;;;;;;;6.00;3.28;;;;;;;24.22;56.31;99751.41;4936458;29;20027;-72
2023/06/15 06:12:43;;;;;;;5.95;3.45;;;;;;;24.19;56.19;99751.63;4936354;29;20031;-72
2023/06/15 06:15:08;;;;;;;4.65;3.40;;;;;;;24.19;56.18;99754.28;4936217;29;20355;-72
2023/06/15 06:17:34;;;;;;;4.57;3.15;;;;;;;24.18;56.25;99749.91;4936377;29;20035;-72
2023/06/15 06:19:59;;;;;;;5.55;3.15;;;;;;;24.18;56.38;99749.91;4936391;29;20036;-72
2023/06/15 06:22:24;;;;;;;5.07;3.40;;;;;;;24.17;56.46;99751.75;4936258;29;20032;-71
2023/06/15 06:24:50;;;;;;;5.20;3.30;;;;;;;24.15;56.22;99756.31;4936169;29;20042;-71
2023/06/15 06:27:15;;;;;;;5.95;3.50;;;;;;;24.13;56.43;99763.59;4935190;29;20032;-73
2023/06/15 06:29:41;;;;;;;7.55;3.97;;;;;;;24.16;56.71;99773.19;4935457;29;20077;-72
2023/06/15 06:32:07;;;;;;;5.85;3.60;;;;;;;24.13;56.69;99764.41;4936063;29;20064;-72
2023/06/15 06:34:35;;;;;;;5.63;3.45;;;;;;;24.16;56.54;99762.50;4935953;29;20028;-72
2023/06/15 06:37:02;;;;;;;5.65;3.20;;;;;;;24.13;56.51;99766.25;4935689;29;20411;-73
2023/06/15 06:39:28;;;;;;;6.38;3.63;;;;;;;24.11;56.65;99758.34;4934465;29;20110;-73
2023/06/15 06:41:53;;;;;;;7.10;3.38;;;;;;;24.13;56.59;99764.41;4935787;29;20043;-72
2023/06/15 06:44:19;;;;;;;5.38;3.50;;;;;;;24.17;56.44;99766.88;4935436;29;20015;-72
2023/06/15 06:46:45;;;;;;;5.30;3.40;;;;;;;24.14;56.53;99759.94;4935676;29;20027;-73
2023/06/15 06:49:10;;;;;;;6.10;3.53;;;;;;;24.16;56.56;99767.84;4935531;29;20114;-72
2023/06/15 06:51:36;;;;;;;5.85;3.50;;;;;;;24.16;56.72;99765.19;4934579;28;20026;-72
2023/06/15 06:54:02;;;;;;;6.25;3.60;;;;;;;24.15;56.49;99766.16;4935744;29;20439;-73
2023/06/15 06:56:27;;;;;;;4.80;3.30;;;;;;;24.12;56.73;99773.38;4935582;29;20526;-72
2023/06/15 06:58:53;;;;;;;5.95;3.75;;;;;;;24.15;56.52;99776.81;4935218;29;20103;-72
2023/06/15 07:01:18;;;;;;;5.25;3.33;;;;;;;24.12;56.70;99773.38;4950384;29;20024;-73
2023/06/15 07:03:43;;;;;;;6.05;3.97;;;;;;;24.14;56.72;99778.59;4935424;29;20020;-72
2023/06/15 07:06:09;;;;;;;7.05;3.70;;;;;;;24.12;56.77;99773.38;4935293;29;20024;-73
2023/06/15 07:08:34;;;;;;;7.60;3.95;;;;;;;24.14;56.75;99775.94;4935333;29;20027;-72
2023/06/15 07:11:00;;;;;;;4.90;3.17;;;;;;;24.13;56.73;99777.75;4935392;29;20454;-74
2023/06/15 07:13:25;;;;;;;5.53;3.50;;;;;;;24.16;56.54;99773.19;4934864;29;20023;-73
2023/06/15 07:15:54;;;;;;;7.30;3.50;;;;;;;24.12;56.74;99783.22;4935261;29;20539;-73
2023/06/15 07:18:20;;;;;;;5.68;3.80;;;;;;;24.14;56.86;99781.28;4935251;29;20027;-73
2023/06/15 07:20:45;;;;;;;8.77;3.58;;;;;;;24.16;56.77;99789.19;4935050;29;20028;-72
2023/06/15 07:23:10;;;;;;;7.13;3.88;;;;;;;24.18;56.38;99787.25;4935214;29;20376;-72
2023/06/15 07:25:36;;;;;;;5.63;3.75;;;;;;;24.16;56.67;99783.84;4935172;29;20023;-72
2023/06/15 07:28:02;;;;;;;7.47;3.63;;;;;;;24.15;56.60;99787.47;4934732;29;20504;-73
2023/06/15 07:30:29;;;;;;;6.63;3.58;;;;;;;24.13;56.77;99782.25;4934869;29;20044;-75
2023/06/15 07:32:54;;;;;;;5.50;3.53;;;;;;;24.16;56.49;99789.19;4935181;29;20110;-72
2023/06/15 07:35:19;;;;;;;6.30;3.97;;;;;;;24.16;56.48;99779.34;4935155;29;20151;-73
2023/06/15 07:37:45;;;;;;;6.03;4.15;;;;;;;24.18;56.59;99784.56;4934764;29;20038;-72
2023/06/15 07:40:11;;;;;;;5.28;3.35;;;;;;;24.21;56.63;99787.03;4934948;29;20039;-74
2023/06/15 07:42:36;;;;;;;5.25;3.50;;;;;;;24.23;56.46;99790.44;4934846;29;20028;-72
2023/06/15 07:45:02;;;;;;;5.05;3.63;;;;;;;24.21;56.37;99793.22;4935011;29;20395;-73
2023/06/15 07:47:27;;;;;;;5.88;3.95;;;;;;;24.22;56.57;99792.25;4934701;29;20031;-72
2023/06/15 07:49:53;;;;;;;5.35;4.07;;;;;;;24.22;56.48;99792.25;4934927;29;20028;-72
2023/06/15 07:52:18;;;;;;;6.45;3.83;;;;;;;24.23;56.58;99795.78;4934767;29;20032;-72
2023/06/15 07:54:43;;;;;;;5.40;3.75;;;;;;;24.25;56.01;99794.72;4934797;29;20094;-72
2023/06/15 07:57:09;;;;;;;5.32;3.58;;;;;;;24.26;56.16;99795.59;4934423;29;20020;-73
2023/06/15 07:59:34;;;;;;;5.10;3.90;;;;;;;24.26;56.31;99801.75;4934622;29;20107;-71
2023/06/15 08:02:02;;;;;;;6.45;4.53;;;;;;;24.26;56.13;99803.59;4934366;29;20056;-73
2023/06/15 08:04:28;;;;;;;5.70;3.83;;;;;;;24.28;56.31;99804.31;4934702;29;20035;-72
2023/06/15 08:06:53;;;;;;;5.25;3.42;;;;;;;24.26;56.47;99803.59;4934299;29;20040;-72
2023/06/15 08:09:19;;;;;;;7.07;4.10;;;;;;;24.26;56.06;99803.59;4934335;29;20028;-72
2023/06/15 08:11:45;;;;;;;6.15;3.95;;;;;;;24.27;56.31;99808.78;4934724;29;20103;-72
2023/06/15 08:14:10;;;;;;;5.45;4.13;;;;;;;24.27;56.08;99803.44;4934737;29;20446;-72
2023/06/15 08:16:36;;;;;;;8.73;4.47;;;;;;;24.25;56.27;99804.50;4934648;29;20031;-72
2023/06/15 08:19:01;;;;;;;5.93;4.40;;;;;;;24.27;56.28;99813.28;4934580;29;20028;-72
2023/06/15 08:21:26;;;;;;;5.97;4.32;;;;;;;24.28;56.28;99809.66;4934726;29;20017;-72
2023/06/15 08:23:52;;;;;;;5.60;4.35;;;;;;;24.27;56.21;99810.63;4934162;29;20071;-73
2023/06/15 08:26:17;;;;;;;5.88;4.20;;;;;;;24.28;55.86;99814.97;4934480;29;20023;-73
2023/06/15 08:28:43;;;;;;;5.72;4.05;;;;;;;24.27;55.86;99810.63;4934223;29;20046;-72
2023/06/15 08:31:08;;;;;;;5.93;4.03;;;;;;;24.27;55.84;99810.63;4934524;29;20028;-72
2023/06/15 08:33:34;;;;;;;8.05;4.00;;;;;;;24.27;56.06;99806.13;4934751;29;20035;-72
2023/06/15 08:35:59;;;;;;;5.00;3.78;;;;;;;24.28;56.26;99812.31;4934387;29;20523;-74
2023/06/15 08:38:25;;;;;;;6.70;4.10;;;;;;;24.29;56.15;99807.81;4934079;29;20058;-73
2023/06/15 08:40:50;;;;;;;5.72;4.15;;;;;;;24.29;55.94;99818.47;4934491;29;20095;-73
2023/06/15 08:43:17;;;;;;;5.60;4.18;;;;;;;24.26;56.01;99817.75;4934582;29;20031;-73
2023/06/15 08:45:43;;;;;;;5.88;4.40;;;;;;;24.29;56.06;99810.47;4934384;29;20023;-72
2023/06/15 08:48:11;;;;;;;5.43;4.32;;;;;;;24.29;56.01;99811.34;4934089;29;20115;-72
2023/06/15 08:50:38;;;;;;;7.07;5.10;;;;;;;24.28;56.08;99814.97;4935854;29;20024;-72
2023/06/15 08:53:08;;;;;;;6.05;4.68;;;;;;;24.27;56.27;99810.63;4937397;29;20518;-73
2023/06/15 08:55:35;;;;;;;5.70;4.50;;;;;;;24.26;56.28;99814.25;4937603;29;20055;-73
2023/06/15 08:58:00;;;;;;;5.72;4.72;;;;;;;24.25;56.10;99807.19;4937621;29;20024;-73
2023/06/15 09:00:26;;;;;;;5.88;4.60;;;;;;;24.25;56.12;99809.84;4937812;29;20039;-73
2023/06/15 09:02:54;;;;;;;7.28;5.00;;;;;;;24.27;56.06;99807.94;4937570;29;20542;-73
2023/06/15 09:05:19;;;;;;;6.28;4.82;;;;;;;24.26;56.01;99812.41;4937652;29;20435;-72
2023/06/15 09:07:45;;;;;;;6.63;4.93;;;;;;;24.27;55.92;99810.63;4937002;29;20040;-73
2023/06/15 09:10:18;;;;;;;5.78;4.45;;;;;;;24.27;56.18;99813.28;4937710;29;20028;-73
2023/06/15 09:12:47;;;;;;;7.80;4.85;;;;;;;24.27;55.82;99807.94;4937489;29;20023;-74
2023/06/15 09:15:21;;;;;;;6.18;4.72;;;;;;;24.26;55.86;99812.41;4937567;29;20119;-72
2023/06/15 09:17:57;;;;;;;7.60;5.05;;;;;;;24.24;56.14;99809.00;4937301;29;20023;-72
2023/06/15 09:20:25;;;;;;;6.43;5.20;;;;;;;24.26;55.89;99814.25;4937347;29;20552;-72
2023/06/15 09:22:51;;;;;;;8.20;4.68;;;;;;;24.25;56.00;99808.06;4936989;29;20031;-73
2023/06/15 09:25:20;;;;;;;5.55;4.47;;;;;;;24.26;56.00;99804.41;4937126;29;20449;-72
2023/06/15 09:27:59;;;;;;;6.15;4.53;;;;;;;24.26;55.77;99807.09;4918114;29;20035;-72
2023/06/15 09:30:39;;;;;;;6.40;4.55;;;;;;;24.27;56.07;99808.78;4918105;29;20056;-74
2023/06/15 09:33:15;;;;;;;6.20;4.85;;;;;;;24.28;55.68;99801.66;4925963;29;20040;-73
2023/06/15 09:35:57;;;;;;;6.57;5.20;;;;;;;24.27;55.89;99797.28;4937220;29;20035;-73
2023/06/15 09:38:24;;;;;;;6.85;5.03;;;;;;;24.28;55.81;99809.66;4936561;29;20035;-72
2023/06/15 09:40:50;;;;;;;5.80;5.07;;;;;;;24.29;55.89;99810.47;4936827;29;20032;-72
2023/06/15 09:43:18;;;;;;;7.68;5.40;;;;;;;24.25;56.03;99807.19;4936547;29;20111;-72
2023/06/15 09:45:51;;;;;;;7.50;5.43;;;;;;;24.28;55.70;99809.66;4936806;29;20031;-73
2023/06/15 09:48:17;;;;;;;9.48;5.13;;;;;;;24.28;55.69;99806.97;4936667;29;20036;-73
2023/06/15 09:50:42;;;;;;;6.93;5.45;;;;;;;24.28;55.78;99809.66;4936849;29;20051;-72
2023/06/15 09:53:12;;;;;;;7.18;5.35;;;;;;;24.26;55.88;99816.91;4951079;29;20030;-72
2023/06/15 09:55:43;;;;;;;7.00;5.20;;;;;;;24.29;55.78;99810.47;4936598;29;20032;-74
2023/06/15 09:58:10;;;;;;;7.60;5.18;;;;;;;24.28;55.81;99809.66;4936605;29;20039;-71
2023/06/15 10:00:35;;;;;;;7.82;5.47;;;;;;;24.26;55.82;99808.91;4936759;29;20051;-74
2023/06/15 10:03:05;;;;;;;6.85;5.55;;;;;;;24.26;56.00;99816.91;4935274;29;20485;-74
2023/06/15 10:05:33;;;;;;;7.07;5.40;;;;;;;24.25;55.84;99812.50;4936066;29;20040;-72
2023/06/15 10:08:02;;;;;;;8.18;5.50;;;;;;;24.23;55.86;99817.97;4936284;29;20098;-74
2023/06/15 10:10:30;;;;;;;5.95;5.10;;;;;;;24.26;55.58;99814.25;4936493;29;20524;-73
2023/06/15 10:13:00;;;;;;;8.13;5.43;;;;;;;24.24;55.84;99808.16;4936330;29;20035;-73
2023/06/15 10:15:28;;;;;;;6.32;5.45;;;;;;;24.24;55.96;99818.81;4936274;29;20059;-73
2023/06/15 10:17:56;;;;;;;7.63;5.95;;;;;;;24.24;55.77;99816.16;4936124;29;20028;-73
2023/06/15 10:20:23;;;;;;;8.35;5.75;;;;;;;24.25;55.81;99820.50;4934643;29;20023;-73
2023/06/15 10:23:07;;;;;;;6.18;5.35;;;;;;;24.24;55.96;99821.47;4936098;29;20031;-72
2023/06/15 10:25:33;;;;;;;7.95;5.40;;;;;;;24.26;55.61;99814.25;4936355;29;20103;-73
2023/06/15 10:28:09;;;;;;;7.13;5.40;;;;;;;24.25;55.80;99815.19;4936016;29;20036;-72
2023/06/15 10:30:52;;;;;;;7.88;5.63;;;;;;;24.24;55.63;99818.81;4935899;29;20050;-72
2023/06/15 10:33:31;;;;;;;7.13;5.78;;;;;;;24.25;55.89;99816.03;4936327;29;20111;-72
2023/06/15 10:36:08;;;;;;;7.00;5.72;;;;;;;24.23;55.90;99817.13;4935650;29;20123;-73
2023/06/15 10:38:42;;;;;;;7.45;5.72;;;;;;;24.23;56.06;99811.78;4935759;29;20075;-73
2023/06/15 10:41:09;;;;;;;8.13;6.13;;;;;;;24.22;55.66;99810.06;4935731;29;20027;-72
2023/06/15 10:43:35;;;;;;;7.90;5.70;;;;;;;24.23;55.47;99811.78;4935968;29;20024;-72
2023/06/15 10:46:02;;;;;;;6.47;5.47;;;;;;;24.22;55.67;99802.91;4934375;29;20028;-73
2023/06/15 10:48:29;;;;;;;7.07;5.53;;;;;;;24.24;55.72;99808.16;4935708;29;20383;-72
2023/06/15 10:51:09;;;;;;;7.03;6.03;;;;;;;24.24;55.88;99803.69;4935331;29;20024;-73
2023/06/15 10:53:42;;;;;;;6.82;5.97;;;;;;;24.26;56.00;99814.25;4934990;29;20391;-71
2023/06/15 10:56:20;;;;;;;6.95;6.07;;;;;;;24.25;55.68;99802.72;4935657;29;20104;-72
2023/06/15 10:59:00;;;;;;;8.18;6.53;;;;;;;24.27;55.96;99799.94;4924274;29;20055;-72
2023/06/15 11:01:28;;;;;;;6.80;5.80;;;;;;;24.26;55.85;99795.59;4935491;29;20820;-72
2023/06/15 11:03:55;;;;;;;6.60;5.80;;;;;;;24.27;55.70;99806.13;4935209;29;20103;-72
2023/06/15 11:06:28;;;;;;;7.20;5.85;;;;;;;24.26;55.85;99798.25;4934099;29;20039;-72
2023/06/15 11:09:01;;;;;;;6.95;5.97;;;;;;;24.27;55.51;99802.63;4935279;29;20129;-72
2023/06/15 11:11:35;;;;;;;7.53;6.22;;;;;;;24.27;55.35;99802.63;4935424;29;20067;-73
2023/06/15 11:14:04;;;;;;;6.97;6.20;;;;;;;24.28;55.80;99804.31;4935238;29;20042;-73
2023/06/15 11:16:31;;;;;;;7.40;6.60;;;;;;;24.29;55.74;99795.34;4935090;29;20027;-72
2023/06/15 11:19:10;;;;;;;7.47;6.38;;;;;;;24.31;55.60;99800.59;4934870;29;20123;-72
2023/06/15 11:21:40;;;;;;;8.52;6.30;;;;;;;24.31;55.43;99798.75;4935206;29;20027;-72
2023/06/15 11:24:06;;;;;;;8.35;6.63;;;;;;;24.32;55.75;99797.81;4935186;29;20555;-73
2023/06/15 11:26:32;;;;;;;7.15;6.40;;;;;;;24.33;55.47;99791.53;4934878;29;20032;-73
2023/06/15 11:29:01;;;;;;;7.03;6.32;;;;;;;24.36;55.77;99799.28;4934738;29;20047;-74
2023/06/15 11:31:30;;;;;;;8.35;6.35;;;;;;;24.37;55.71;99792.16;4935114;29;20531;-72
2023/06/15 11:33:56;;;;;;;7.03;6.32;;;;;;;24.37;55.49;99802.81;4935022;29;20031;-72